Time;durP1;ratioP1;P1;durP2;ratioP2;P2;SDS_P1;SDS_P2;PMS_P1;PMS_P2;Temp;Humidity;BMP_temperature;BMP_pressure;BME280_temperature;BME280_humidity;BME280_pressure;Samples;Min_cycle;Max_cycle;Signal;HPM_P1;HPM_P2
2023/08/06 00:01:06;;;;;;;0.20;0.20;;;9.60;99.90;;;;;;5051803;28;20209;-71
2023/08/06 00:03:32;;;;;;;0.20;0.20;;;9.60;99.90;;;;;;5051520;28;20186;-71
2023/08/06 00:06:07;;;;;;;0.28;0.28;;;9.60;99.90;;;;;;5053012;28;20215;-71
2023/08/06 00:08:33;;;;;;;0.20;0.20;;;9.50;99.90;;;;;;5074679;28;20244;-71
2023/08/06 00:10:58;;;;;;;0.20;0.20;;;9.50;99.90;;;;;;5075904;28;20228;-71
2023/08/06 00:13:24;;;;;;;0.40;0.40;;;9.50;99.90;;;;;;5075726;28;20209;-71
2023/08/06 00:15:50;;;;;;;0.20;0.20;;;9.50;99.90;;;;;;5075882;28;20235;-71
2023/08/06 00:18:16;;;;;;;0.20;0.20;;;9.50;99.90;;;;;;5076100;28;20203;-72
2023/08/06 00:20:42;;;;;;;0.32;0.32;;;9.40;99.90;;;;;;5075819;28;20567;-72
2023/08/06 00:23:08;;;;;;;0.20;0.20;;;9.40;99.90;;;;;;5075520;28;20211;-71
2023/08/06 00:25:34;;;;;;;0.20;0.20;;;9.40;99.90;;;;;;5075651;28;20193;-71
2023/08/06 00:28:00;;;;;;;0.20;0.20;;;9.40;99.90;;;;;;5075814;28;20212;-71
2023/08/06 00:30:25;;;;;;;0.20;0.20;;;9.40;99.90;;;;;;5074005;28;20612;-72
2023/08/06 00:32:51;;;;;;;0.20;0.20;;;9.30;99.90;;;;;;5076057;28;20216;-68
2023/08/06 00:35:17;;;;;;;0.22;0.22;;;9.30;99.90;;;;;;5075939;28;20294;-67
2023/08/06 00:37:43;;;;;;;0.30;0.30;;;9.30;99.90;;;;;;5075864;28;20243;-68
2023/08/06 00:40:08;;;;;;;0.20;0.20;;;9.20;99.90;;;;;;5076416;28;20185;-67
2023/08/06 00:42:34;;;;;;;0.32;0.32;;;9.20;99.90;;;;;;5074826;28;20303;-68
2023/08/06 00:45:01;;;;;;;0.30;0.30;;;9.20;99.90;;;;;;5075600;28;20184;-68
2023/08/06 00:47:26;;;;;;;0.22;0.22;;;9.20;99.90;;;;;;5075384;28;20197;-67
2023/08/06 00:49:52;;;;;;;0.30;0.30;;;9.10;99.90;;;;;;5075479;28;20576;-68
2023/08/06 00:52:18;;;;;;;0.22;0.22;;;9.10;99.90;;;;;;5075514;28;20197;-68
2023/08/06 00:54:44;;;;;;;0.28;0.28;;;9.10;99.90;;;;;;5075106;28;20193;-68
2023/08/06 00:57:10;;;;;;;0.20;0.20;;;9.00;99.90;;;;;;5075853;28;20276;-68
2023/08/06 00:59:37;;;;;;;0.20;0.20;;;9.00;99.90;;;;;;5075118;28;20196;-68
2023/08/06 01:02:02;;;;;;;0.20;0.20;;;9.00;99.90;;;;;;5097265;22;20232;-71
2023/08/06 01:04:28;;;;;;;0.30;0.30;;;8.90;99.90;;;;;;5095707;28;20188;-75
2023/08/06 01:07:42;;;;;;;0.20;0.20;;;9.00;99.90;;;;;;5094850;28;20190;-70
2023/08/06 01:10:23;;;;;;;0.20;0.20;;;9.00;99.90;;;;;;5022258;28;20289;-70
2023/08/06 01:13:07;;;;;;;0.20;0.20;;;9.00;99.90;;;;;;5095253;28;20192;-71
2023/08/06 01:15:41;;;;;;;0.30;0.30;;;9.00;99.90;;;;;;5095697;28;20623;-70
2023/08/06 01:18:07;;;;;;;0.30;0.30;;;9.00;99.90;;;;;;5094297;28;20189;-70
2023/08/06 01:20:33;;;;;;;0.20;0.20;;;9.00;99.90;;;;;;5094653;28;20211;-69
2023/08/06 01:22:59;;;;;;;0.20;0.20;;;9.00;99.90;;;;;;5094801;28;20181;-71
2023/08/06 01:25:36;;;;;;;0.28;0.28;;;9.00;99.90;;;;;;5094869;28;20267;-70
2023/08/06 01:28:15;;;;;;;0.20;0.20;;;9.00;99.90;;;;;;5094951;28;20188;-70
2023/08/06 01:30:42;;;;;;;0.30;0.30;;;8.90;99.90;;;;;;5094631;28;20530;-70
2023/08/06 01:33:12;;;;;;;0.20;0.20;;;8.90;99.90;;;;;;5094933;28;20520;-70
2023/08/06 01:35:38;;;;;;;0.20;0.20;;;8.90;99.90;;;;;;5094615;28;20569;-70
2023/08/06 01:38:04;;;;;;;24.40;1.00;;;8.90;99.90;;;;;;5094143;28;20682;-70
2023/08/06 01:40:30;;;;;;;0.22;0.22;;;9.00;99.90;;;;;;5094647;28;20288;-70
2023/08/06 01:42:56;;;;;;;0.22;0.22;;;9.00;99.90;;;;;;5094843;28;20192;-71
2023/08/06 01:45:22;;;;;;;0.30;0.30;;;9.00;99.90;;;;;;5094257;28;20199;-70
2023/08/06 01:47:47;;;;;;;0.22;0.22;;;9.00;99.90;;;;;;5094566;28;20674;-70
2023/08/06 01:50:13;;;;;;;0.28;0.28;;;9.00;99.90;;;;;;5094716;28;20242;-70
2023/08/06 01:52:39;;;;;;;5.57;1.30;;;8.90;99.90;;;;;;5094569;28;20204;-70
2023/08/06 01:55:05;;;;;;;0.43;0.43;;;8.90;99.90;;;;;;5094729;28;20601;-70
2023/08/06 01:57:30;;;;;;;0.40;0.40;;;8.90;99.90;;;;;;5094606;28;20225;-70
2023/08/06 01:59:56;;;;;;;0.20;0.20;;;8.90;99.90;;;;;;5094156;28;20200;-70
2023/08/06 02:02:22;;;;;;;0.30;0.30;;;8.90;99.90;;;;;;5110741;28;20259;-70
2023/08/06 02:04:48;;;;;;;0.20;0.20;;;8.90;99.90;;;;;;5114995;28;20710;-69
2023/08/06 02:07:13;;;;;;;0.20;0.20;;;8.90;99.90;;;;;;5114579;28;20207;-70
2023/08/06 02:09:42;;;;;;;0.20;0.20;;;8.90;99.90;;;;;;5114863;28;20191;-70
2023/08/06 02:12:08;;;;;;;0.20;0.20;;;8.90;99.90;;;;;;5114887;28;20274;-72
2023/08/06 02:14:34;;;;;;;0.40;0.40;;;8.90;99.90;;;;;;5114342;28;20192;-72
2023/08/06 02:17:00;;;;;;;0.30;0.30;;;8.90;99.90;;;;;;5095118;28;20207;-72
2023/08/06 02:19:26;;;;;;;0.20;0.20;;;8.90;99.90;;;;;;5093201;28;20594;-72
2023/08/06 02:21:52;;;;;;;0.20;0.20;;;8.80;99.90;;;;;;5093459;28;20602;-72
2023/08/06 02:24:17;;;;;;;0.20;0.20;;;8.90;99.90;;;;;;5093769;28;20192;-72
2023/08/06 02:26:43;;;;;;;0.28;0.28;;;8.80;99.90;;;;;;5093239;28;20215;-73
2023/08/06 02:29:09;;;;;;;0.20;0.20;;;8.80;99.90;;;;;;5093054;28;20283;-73
2023/08/06 02:31:34;;;;;;;0.30;0.30;;;8.80;99.90;;;;;;5092799;28;20651;-73
2023/08/06 02:34:00;;;;;;;0.20;0.20;;;8.80;99.90;;;;;;5093862;28;20568;-72
2023/08/06 02:36:29;;;;;;;0.30;0.30;;;8.80;99.90;;;;;;5091437;28;20231;-72
2023/08/06 02:38:55;;;;;;;0.20;0.20;;;8.80;99.90;;;;;;5091403;28;20192;-72
2023/08/06 02:41:21;;;;;;;0.20;0.20;;;8.80;99.90;;;;;;5092970;28;20223;-72
2023/08/06 02:43:46;;;;;;;0.20;0.20;;;8.80;99.90;;;;;;5092988;28;20188;-72
2023/08/06 02:46:12;;;;;;;0.20;0.20;;;8.80;99.90;;;;;;5092861;28;20190;-73
2023/08/06 02:48:38;;;;;;;0.20;0.20;;;8.80;99.90;;;;;;5092908;28;20223;-73
2023/08/06 02:51:03;;;;;;;0.20;0.20;;;8.90;99.90;;;;;;5092847;28;20192;-73
2023/08/06 02:53:29;;;;;;;0.35;0.35;;;8.90;99.90;;;;;;5092340;28;20695;-73
2023/08/06 02:55:55;;;;;;;0.20;0.20;;;8.90;99.90;;;;;;5092807;28;20203;-73
2023/08/06 02:58:24;;;;;;;0.30;0.30;;;8.80;99.90;;;;;;5074430;28;20204;-72
2023/08/06 03:01:03;;;;;;;0.20;0.20;;;8.80;99.90;;;;;;5094333;28;20227;-73
2023/08/06 03:03:30;;;;;;;0.30;0.30;;;8.80;99.90;;;;;;5091703;28;20219;-73
2023/08/06 03:05:56;;;;;;;0.40;0.40;;;8.80;99.90;;;;;;5092659;28;20666;-73
2023/08/06 03:08:22;;;;;;;0.30;0.30;;;8.70;99.90;;;;;;5092328;28;20231;-72
2023/08/06 03:10:51;;;;;;;0.28;0.28;;;8.80;99.90;;;;;;5092651;28;20192;-72
2023/08/06 03:13:18;;;;;;;0.20;0.20;;;8.80;99.90;;;;;;5092530;28;20286;-72
2023/08/06 03:15:57;;;;;;;0.20;0.20;;;8.70;99.90;;;;;;5074296;28;20203;-72
2023/08/06 03:18:23;;;;;;;0.22;0.22;;;8.80;99.90;;;;;;5092419;28;20494;-72
2023/08/06 03:20:49;;;;;;;0.35;0.35;;;8.80;99.90;;;;;;5092546;28;20279;-72
2023/08/06 03:23:15;;;;;;;0.55;0.40;;;8.80;99.90;;;;;;5092511;28;20583;-72
2023/08/06 03:25:41;;;;;;;0.30;0.30;;;8.80;99.90;;;;;;5092309;28;20192;-72
2023/08/06 03:28:06;;;;;;;0.20;0.20;;;8.80;99.90;;;;;;5092265;28;20604;-72
2023/08/06 03:30:32;;;;;;;0.30;0.30;;;8.90;99.90;;;;;;5092407;28;20196;-73
2023/08/06 03:32:58;;;;;;;0.73;0.40;;;8.90;99.90;;;;;;5092581;28;20214;-72
2023/08/06 03:35:23;;;;;;;0.43;0.43;;;9.00;99.90;;;;;;5090741;28;20233;-72
2023/08/06 03:37:49;;;;;;;0.50;0.40;;;9.00;99.90;;;;;;5091977;28;20185;-73
2023/08/06 03:40:15;;;;;;;0.40;0.40;;;9.10;99.90;;;;;;5092400;28;20192;-72
2023/08/06 03:42:41;;;;;;;0.20;0.20;;;9.10;99.90;;;;;;5094521;28;20211;-73
2023/08/06 03:45:07;;;;;;;0.20;0.20;;;9.20;99.90;;;;;;5096269;28;20187;-73
2023/08/06 03:47:33;;;;;;;0.20;0.20;;;9.30;99.90;;;;;;5096352;28;20351;-73
2023/08/06 03:49:59;;;;;;;0.20;0.20;;;9.30;99.90;;;;;;5096266;28;20779;-73
2023/08/06 03:52:25;;;;;;;0.20;0.20;;;9.40;99.90;;;;;;5077881;28;20262;-72
2023/08/06 03:54:50;;;;;;;0.52;0.52;;;9.40;99.90;;;;;;5096412;28;20204;-73
2023/08/06 03:57:16;;;;;;;0.20;0.20;;;9.50;99.90;;;;;;5096168;28;20196;-73
2023/08/06 03:59:42;;;;;;;0.30;0.30;;;9.60;99.90;;;;;;5095572;28;20267;-72
2023/08/06 04:02:07;;;;;;;0.40;0.40;;;9.60;99.90;;;;;;5110231;28;20247;-73
2023/08/06 04:04:33;;;;;;;0.30;0.30;;;9.70;99.90;;;;;;5116514;28;20206;-73
2023/08/06 04:06:59;;;;;;;0.20;0.20;;;9.80;99.90;;;;;;5116427;28;20195;-73
2023/08/06 04:09:24;;;;;;;0.30;0.30;;;9.80;99.90;;;;;;5098020;28;20202;-73
2023/08/06 04:11:50;;;;;;;0.20;0.20;;;9.80;99.90;;;;;;5095841;28;20214;-73
2023/08/06 04:14:16;;;;;;;0.20;0.20;;;9.90;99.90;;;;;;5096144;28;20200;-73
2023/08/06 04:16:41;;;;;;;0.20;0.20;;;10.00;99.90;;;;;;5077293;28;20258;-73
2023/08/06 04:19:07;;;;;;;0.20;0.20;;;10.10;99.90;;;;;;5095689;28;20217;-73
2023/08/06 04:21:33;;;;;;;0.20;0.20;;;10.20;99.90;;;;;;5095686;28;20678;-73
2023/08/06 04:24:00;;;;;;;0.20;0.20;;;10.30;99.90;;;;;;5095406;28;20233;-72
2023/08/06 04:26:26;;;;;;;0.65;0.50;;;10.30;99.90;;;;;;5095073;28;20231;-72
2023/08/06 04:28:52;;;;;;;0.32;0.32;;;10.40;99.90;;;;;;5095269;28;20195;-73
2023/08/06 04:31:17;;;;;;;0.30;0.30;;;10.50;99.90;;;;;;5095337;28;20223;-71
2023/08/06 04:33:43;;;;;;;0.30;0.30;;;10.60;99.90;;;;;;5094893;28;20196;-70
2023/08/06 04:36:09;;;;;;;15.70;0.68;;;10.70;99.90;;;;;;5095373;28;20215;-70
2023/08/06 04:38:35;;;;;;;1.88;1.17;;;10.70;99.90;;;;;;5094864;28;20202;-70
2023/08/06 04:41:03;;;;;;;0.20;0.20;;;10.90;99.90;;;;;;5076905;28;20242;-70
2023/08/06 04:43:29;;;;;;;0.20;0.20;;;11.00;99.90;;;;;;5094850;28;20237;-70
2023/08/06 04:45:55;;;;;;;0.20;0.20;;;11.10;99.90;;;;;;5094887;28;20275;-70
2023/08/06 04:48:22;;;;;;;0.20;0.20;;;11.30;99.90;;;;;;5094708;28;20645;-70
2023/08/06 04:50:50;;;;;;;0.40;0.40;;;11.40;99.90;;;;;;5094933;28;20216;-71
2023/08/06 04:53:16;;;;;;;0.20;0.20;;;11.60;99.90;;;;;;5093405;28;20271;-71
2023/08/06 04:55:42;;;;;;;0.20;0.20;;;11.70;99.90;;;;;;5094766;28;20533;-71
2023/08/06 04:58:09;;;;;;;0.30;0.30;;;11.80;99.90;;;;;;5094997;28;20202;-70
2023/08/06 05:00:35;;;;;;;0.22;0.22;;;11.90;99.90;;;;;;5096045;28;20284;-70
2023/08/06 05:03:01;;;;;;;0.22;0.22;;;12.00;99.90;;;;;;5115000;28;20251;-71
2023/08/06 05:05:27;;;;;;;0.20;0.20;;;12.10;99.90;;;;;;5099130;28;20200;-72
2023/08/06 05:07:54;;;;;;;0.40;0.25;;;12.20;99.90;;;;;;5094840;28;20207;-71
2023/08/06 05:10:20;;;;;;;0.25;0.25;;;12.30;99.90;;;;;;5094266;28;20188;-71
2023/08/06 05:12:46;;;;;;;0.20;0.20;;;12.50;99.90;;;;;;5094607;28;20200;-72
2023/08/06 05:15:12;;;;;;;0.20;0.20;;;12.50;99.90;;;;;;5094765;28;20193;-71
2023/08/06 05:17:37;;;;;;;0.10;0.10;;;12.60;99.90;;;;;;5094212;28;20226;-72
2023/08/06 05:20:04;;;;;;;0.20;0.20;;;12.70;99.90;;;;;;5095218;28;20278;-72
2023/08/06 05:22:29;;;;;;;0.30;0.30;;;12.80;99.90;;;;;;5094342;28;20604;-72
2023/08/06 05:24:55;;;;;;;0.15;0.15;;;13.00;99.90;;;;;;5094566;28;20192;-71
2023/08/06 05:27:21;;;;;;;0.40;0.40;;;13.10;99.90;;;;;;5094224;28;20196;-73
2023/08/06 05:29:48;;;;;;;23.02;0.63;;;13.20;99.90;;;;;;5094327;28;20718;-70
2023/08/06 05:32:14;;;;;;;0.20;0.20;;;13.30;99.90;;;;;;5094292;28;20565;-72
2023/08/06 05:34:41;;;;;;;0.20;0.20;;;13.30;99.90;;;;;;5094227;28;20196;-70
2023/08/06 05:37:07;;;;;;;0.10;0.10;;;13.40;99.90;;;;;;5094314;28;20199;-70
2023/08/06 05:39:32;;;;;;;0.10;0.10;;;13.40;99.90;;;;;;5093973;28;20192;-71
2023/08/06 05:41:58;;;;;;;0.38;0.38;;;13.50;99.90;;;;;;5094320;28;20204;-74
2023/08/06 05:44:24;;;;;;;0.45;0.40;;;13.70;99.90;;;;;;5094158;28;20245;-74
2023/08/06 05:46:50;;;;;;;0.10;0.10;;;13.80;99.90;;;;;;5093960;28;20203;-72
2023/08/06 05:49:16;;;;;;;3.10;0.63;;;13.90;99.90;;;;;;5075901;28;20192;-72
2023/08/06 05:51:42;;;;;;;0.30;0.30;;;14.00;99.90;;;;;;5093903;28;20290;-73
2023/08/06 05:54:07;;;;;;;0.20;0.20;;;14.10;99.90;;;;;;5093876;28;20227;-72
2023/08/06 05:56:33;;;;;;;0.10;0.10;;;14.20;99.90;;;;;;5093650;28;20196;-72
2023/08/06 05:58:59;;;;;;;0.15;0.15;;;14.30;99.90;;;;;;5094066;28;20196;-73
2023/08/06 06:01:25;;;;;;;0.10;0.10;;;14.40;99.90;;;;;;5093105;28;20760;-73
2023/08/06 06:03:51;;;;;;;0.10;0.10;;;14.30;99.90;;;;;;5074981;28;20196;-73
2023/08/06 06:06:18;;;;;;;0.20;0.20;;;14.30;99.90;;;;;;5093761;28;20230;-73
2023/08/06 06:08:44;;;;;;;0.10;0.10;;;14.40;99.90;;;;;;5075855;28;20226;-73
2023/08/06 06:11:10;;;;;;;0.20;0.20;;;14.40;99.90;;;;;;5093834;28;20662;-73
2023/08/06 06:13:36;;;;;;;0.30;0.30;;;14.60;99.90;;;;;;5093204;28;20275;-73
2023/08/06 06:16:01;;;;;;;0.22;0.22;;;14.60;99.90;;;;;;5093452;28;20200;-73
2023/08/06 06:18:27;;;;;;;0.65;0.50;;;14.70;99.90;;;;;;5075319;28;20337;-74
2023/08/06 06:20:53;;;;;;;0.30;0.30;;;14.80;99.90;;;;;;5093296;28;20200;-73
2023/08/06 06:23:18;;;;;;;0.17;0.17;;;14.80;99.90;;;;;;5093257;28;20196;-73
2023/08/06 06:25:53;;;;;;;0.20;0.20;;;14.90;99.90;;;;;;5093130;28;20192;-73
2023/08/06 06:28:19;;;;;;;0.13;0.13;;;15.00;99.90;;;;;;5093174;28;20325;-74
2023/08/06 06:30:44;;;;;;;0.20;0.20;;;15.30;99.90;;;;;;5093212;28;20264;-73
2023/08/06 06:33:10;;;;;;;0.20;0.20;;;15.40;99.90;;;;;;5092173;28;20206;-73
2023/08/06 06:35:36;;;;;;;0.10;0.10;;;15.50;99.90;;;;;;5093057;28;20215;-72
2023/08/06 06:38:02;;;;;;;0.30;0.30;;;15.50;99.90;;;;;;5093444;28;20659;-72
2023/08/06 06:40:28;;;;;;;0.10;0.10;;;15.60;99.90;;;;;;5093136;28;20199;-73
2023/08/06 06:42:54;;;;;;;18.40;0.57;;;15.70;99.90;;;;;;5092960;28;20211;-73
2023/08/06 06:45:19;;;;;;;0.10;0.10;;;15.80;99.90;;;;;;5074920;28;20210;-73
2023/08/06 06:47:45;;;;;;;0.30;0.30;;;15.90;99.90;;;;;;5093269;28;20219;-73
2023/08/06 06:50:11;;;;;;;0.75;0.52;;;16.10;99.90;;;;;;5092890;28;20192;-73
2023/08/06 06:52:37;;;;;;;0.30;0.30;;;16.20;99.90;;;;;;5093255;28;20188;-72
2023/08/06 06:55:03;;;;;;;0.15;0.15;;;16.40;99.90;;;;;;5093111;28;20275;-71
2023/08/06 06:57:29;;;;;;;0.10;0.10;;;16.30;99.90;;;;;;5092391;28;20223;-72
2023/08/06 06:59:54;;;;;;;0.10;0.10;;;16.40;99.90;;;;;;5092803;28;20612;-71
2023/08/06 07:02:20;;;;;;;0.10;0.10;;;16.40;99.90;;;;;;5075644;28;20229;-71
2023/08/06 07:04:46;;;;;;;5.00;1.02;;;16.40;99.90;;;;;;5072551;28;20193;-72
2023/08/06 07:07:12;;;;;;;0.88;0.25;;;16.50;99.90;;;;;;5072399;28;20188;-71
2023/08/06 07:09:37;;;;;;;1.95;0.45;;;16.70;99.90;;;;;;5072385;28;20670;-72
2023/08/06 07:12:04;;;;;;;0.10;0.10;;;16.80;99.90;;;;;;5054424;28;20193;-72
2023/08/06 07:14:29;;;;;;;0.10;0.10;;;16.90;99.90;;;;;;5071948;28;20707;-71
2023/08/06 07:16:55;;;;;;;0.10;0.10;;;17.10;99.90;;;;;;5071676;28;20279;-73
2023/08/06 07:19:21;;;;;;;0.05;0.05;;;17.20;99.90;;;;;;5072273;28;20192;-72
2023/08/06 07:21:47;;;;;;;0.10;0.10;;;17.30;99.90;;;;;;5071843;28;20211;-72
2023/08/06 07:24:12;;;;;;;0.10;0.10;;;17.40;99.90;;;;;;5072235;28;20210;-73
2023/08/06 07:26:41;;;;;;;0.30;0.30;;;17.30;99.90;;;;;;5072485;28;20242;-71
2023/08/06 07:29:07;;;;;;;0.17;0.17;;;17.30;99.90;;;;;;5072203;28;20203;-72
2023/08/06 07:31:33;;;;;;;0.17;0.17;;;17.40;99.90;;;;;;5071988;28;20193;-73
2023/08/06 07:33:59;;;;;;;0.20;0.20;;;17.40;99.90;;;;;;5071915;28;20245;-73
2023/08/06 07:36:24;;;;;;;1.45;0.40;;;17.30;99.90;;;;;;5053542;28;20204;-73
2023/08/06 07:38:55;;;;;;;0.20;0.20;;;17.30;99.90;;;;;;5071841;28;20224;-73
2023/08/06 07:41:22;;;;;;;1.23;0.68;;;17.40;99.90;;;;;;5071427;28;20287;-73
2023/08/06 07:43:48;;;;;;;0.43;0.43;;;17.50;99.90;;;;;;5071519;28;20582;-73
2023/08/06 07:46:14;;;;;;;0.20;0.20;;;17.80;99.90;;;;;;5071838;28;20192;-74
2023/08/06 07:48:39;;;;;;;0.35;0.20;;;17.90;99.90;;;;;;5071765;28;20267;-74
2023/08/06 07:51:05;;;;;;;0.10;0.10;;;18.10;99.90;;;;;;5071760;28;20242;-74
2023/08/06 07:53:31;;;;;;;0.10;0.10;;;18.20;99.90;;;;;;5071279;28;20223;-73
2023/08/06 07:55:57;;;;;;;0.32;0.20;;;18.30;99.90;;;;;;5071814;28;20193;-73
2023/08/06 07:58:25;;;;;;;0.30;0.30;;;18.30;99.90;;;;;;5071256;28;20205;-74
2023/08/06 08:00:50;;;;;;;0.60;0.20;;;18.50;99.90;;;;;;5079193;28;20254;-74
2023/08/06 08:03:17;;;;;;;0.10;0.10;;;18.60;99.90;;;;;;5112209;28;20662;-74
2023/08/06 08:05:43;;;;;;;0.10;0.10;;;18.60;99.90;;;;;;5112121;28;20211;-74
2023/08/06 08:08:09;;;;;;;0.13;0.13;;;18.80;99.90;;;;;;5093784;28;20192;-74
2023/08/06 08:10:36;;;;;;;0.00;0.00;;;19.00;99.90;;;;;;5093551;28;20200;-74
2023/08/06 08:13:04;;;;;;;0.10;0.10;;;19.30;99.90;;;;;;5112315;28;20260;-74
2023/08/06 08:15:31;;;;;;;0.10;0.10;;;19.40;99.90;;;;;;5111829;28;20235;-74
2023/08/06 08:17:58;;;;;;;0.17;0.17;;;19.50;99.90;;;;;;5097838;28;20249;-75
2023/08/06 08:20:23;;;;;;;0.25;0.25;;;19.60;99.90;;;;;;5091636;28;20250;-75
2023/08/06 08:22:49;;;;;;;0.40;0.40;;;19.50;99.90;;;;;;5091787;28;20204;-75
2023/08/06 08:25:16;;;;;;;0.47;0.47;;;19.60;99.90;;;;;;5091781;28;20196;-74
2023/08/06 08:27:42;;;;;;;0.32;0.32;;;19.60;99.90;;;;;;5075384;28;20204;-74
2023/08/06 08:30:08;;;;;;;0.00;0.00;;;19.50;99.90;;;;;;5095737;28;20308;-74
2023/08/06 08:32:34;;;;;;;0.30;0.30;;;19.50;99.90;;;;;;5095315;28;20199;-74
2023/08/06 08:34:59;;;;;;;0.10;0.10;;;19.40;99.90;;;;;;5095700;28;20252;-73
2023/08/06 08:37:25;;;;;;;0.00;0.00;;;19.20;99.90;;;;;;5095209;28;20219;-73
2023/08/06 08:39:52;;;;;;;0.00;0.00;;;19.20;99.90;;;;;;5095454;28;20194;-73
2023/08/06 08:42:18;;;;;;;0.30;0.30;;;19.10;99.90;;;;;;5095336;28;20690;-74
2023/08/06 08:44:45;;;;;;;0.13;0.13;;;19.20;99.90;;;;;;5095102;28;20187;-73
2023/08/06 08:47:12;;;;;;;0.10;0.10;;;19.00;99.90;;;;;;5095576;28;20203;-73
2023/08/06 08:49:40;;;;;;;0.00;0.00;;;19.10;99.90;;;;;;5094875;28;21408;-73
2023/08/06 08:52:10;;;;;;;0.10;0.10;;;19.30;99.90;;;;;;5094927;28;20222;-74
2023/08/06 08:54:38;;;;;;;0.10;0.10;;;19.30;99.90;;;;;;5094816;28;20204;-74
2023/08/06 08:57:04;;;;;;;0.10;0.10;;;19.40;99.90;;;;;;5095138;28;20228;-73
2023/08/06 08:59:31;;;;;;;0.30;0.10;;;19.40;99.90;;;;;;5093308;28;20200;-74
2023/08/06 09:01:57;;;;;;;0.10;0.10;;;19.40;99.90;;;;;;5112735;28;20791;-74
2023/08/06 09:04:26;;;;;;;0.08;0.08;;;19.50;99.90;;;;;;5115001;28;20599;-74
2023/08/06 09:06:53;;;;;;;0.10;0.10;;;19.70;99.90;;;;;;5114866;28;20207;-75
2023/08/06 09:09:39;;;;;;;0.10;0.10;;;19.70;99.90;;;;;;5115095;28;20191;-74
2023/08/06 09:12:14;;;;;;;0.05;0.05;;;19.70;99.90;;;;;;5114762;28;20194;-74
2023/08/06 09:14:40;;;;;;;0.20;0.20;;;19.70;99.90;;;;;;5097052;28;20225;-74
2023/08/06 09:17:06;;;;;;;0.20;0.20;;;19.90;99.90;;;;;;5094742;28;20193;-75
2023/08/06 09:19:32;;;;;;;0.20;0.20;;;19.90;99.90;;;;;;5094572;28;20196;-74
2023/08/06 09:21:59;;;;;;;0.20;0.20;;;19.50;99.90;;;;;;5094380;28;20212;-74
2023/08/06 09:24:26;;;;;;;0.20;0.20;;;19.70;99.90;;;;;;5094281;28;20663;-75
2023/08/06 09:26:52;;;;;;;0.30;0.30;;;19.70;99.90;;;;;;5094376;28;20271;-75
2023/08/06 09:29:17;;;;;;;0.20;0.20;;;19.70;99.90;;;;;;5094501;28;20222;-75
2023/08/06 09:31:47;;;;;;;0.20;0.20;;;20.00;99.90;;;;;;5094265;28;20245;-75
2023/08/06 09:34:17;;;;;;;0.20;0.20;;;20.30;99.90;;;;;;5094553;28;20199;-76
2023/08/06 09:36:50;;;;;;;0.43;0.43;;;20.10;99.90;;;;;;5094403;28;20220;-75
2023/08/06 09:39:18;;;;;;;0.20;0.20;;;20.30;99.90;;;;;;5093333;28;20188;-74
2023/08/06 09:41:44;;;;;;;0.32;0.32;;;20.40;99.90;;;;;;5094111;28;20213;-74
2023/08/06 09:44:21;;;;;;;0.45;0.45;;;20.20;99.90;;;;;;5076401;28;20193;-74
2023/08/06 09:46:53;;;;;;;0.40;0.40;;;20.10;99.90;;;;;;5093829;28;20195;-75
2023/08/06 09:49:22;;;;;;;0.40;0.40;;;20.10;99.90;;;;;;5093780;28;20261;-74
2023/08/06 09:51:51;;;;;;;0.40;0.40;;;20.10;99.90;;;;;;5094065;28;20194;-74
2023/08/06 09:54:20;;;;;;;0.30;0.30;;;20.00;99.90;;;;;;5092522;28;20196;-73
2023/08/06 09:56:47;;;;;;;0.40;0.40;;;20.00;99.90;;;;;;5093907;28;20196;-74
2023/08/06 09:59:13;;;;;;;0.20;0.20;;;20.00;99.90;;;;;;5093887;28;20626;-74
2023/08/06 10:01:39;;;;;;;0.20;0.20;;;20.00;99.90;;;;;;5108655;28;20231;-73
2023/08/06 10:04:11;;;;;;;0.30;0.30;;;20.10;99.90;;;;;;5113967;28;20234;-75
2023/08/06 10:06:37;;;;;;;1.17;0.45;;;20.00;99.90;;;;;;5114033;28;20188;-74
2023/08/06 10:09:04;;;;;;;0.20;0.20;;;19.90;99.90;;;;;;5111500;28;20282;-74
2023/08/06 10:11:30;;;;;;;0.65;0.63;;;19.90;99.90;;;;;;5093790;28;20710;-74
2023/08/06 10:14:15;;;;;;;0.93;0.50;;;19.90;99.90;;;;;;5094009;28;20192;-75
2023/08/06 10:16:42;;;;;;;0.65;0.65;;;20.20;99.90;;;;;;5093143;28;20195;-73
2023/08/06 10:19:10;;;;;;;0.30;0.30;;;20.50;99.90;;;;;;5093345;28;20681;-73
2023/08/06 10:21:38;;;;;;;0.20;0.20;;;20.90;99.90;;;;;;5093106;28;20227;-73
2023/08/06 10:24:10;;;;;;;0.20;0.20;;;20.80;99.90;;;;;;5093054;28;20196;-69
2023/08/06 10:26:36;;;;;;;0.50;0.50;;;20.80;99.90;;;;;;5092818;28;20596;-69
2023/08/06 10:29:37;;;;;;;0.82;0.50;;;20.70;99.90;;;;;;5093014;28;20192;-69
2023/08/06 10:32:04;;;;;;;0.20;0.20;;;20.60;99.90;;;;;;5092980;28;20702;-71
2023/08/06 10:35:00;;;;;;;0.38;0.38;;;20.20;99.90;;;;;;5092674;28;20223;-70
2023/08/06 10:37:36;;;;;;;0.30;0.30;;;20.00;99.90;;;;;;5092495;28;20538;-69
2023/08/06 10:40:02;;;;;;;0.30;0.30;;;19.80;99.90;;;;;;5092898;28;20252;-69
2023/08/06 10:42:29;;;;;;;0.45;0.28;;;19.70;99.90;;;;;;5092235;28;20208;-70
2023/08/06 10:45:19;;;;;;;1.63;1.33;;;19.60;99.90;;;;;;5091206;28;20188;-69
2023/08/06 10:48:05;;;;;;;1.25;0.52;;;19.50;99.90;;;;;;5092654;28;20192;-71
2023/08/06 10:50:32;;;;;;;0.40;0.40;;;19.40;99.90;;;;;;5091398;28;20200;-70
2023/08/06 10:53:05;;;;;;;0.80;0.68;;;19.10;99.90;;;;;;5092550;28;20275;-71
2023/08/06 10:55:31;;;;;;;0.20;0.20;;;19.10;99.90;;;;;;5091219;28;20200;-70
2023/08/06 10:57:58;;;;;;;0.38;0.38;;;19.10;99.90;;;;;;5092613;28;20195;-69
2023/08/06 11:00:24;;;;;;;1.00;0.50;;;19.10;99.90;;;;;;5096914;28;20608;-71
2023/08/06 11:02:54;;;;;;;0.32;0.32;;;19.30;99.90;;;;;;5112844;28;20203;-69
2023/08/06 11:05:22;;;;;;;0.40;0.40;;;19.60;99.90;;;;;;5110343;28;20188;-72
2023/08/06 11:07:49;;;;;;;0.52;0.52;;;19.90;99.90;;;;;;5074267;28;20720;-71
2023/08/06 11:10:14;;;;;;;0.63;0.63;;;20.30;99.90;;;;;;5092468;28;20223;-72
2023/08/06 11:12:43;;;;;;;1.08;0.77;;;20.50;99.90;;;;;;5092085;28;20224;-71
2023/08/06 11:15:10;;;;;;;10.95;0.55;;;20.70;99.90;;;;;;5092585;28;20567;-70
2023/08/06 11:17:43;;;;;;;0.70;0.68;;;20.70;99.90;;;;;;5092321;28;20195;-72
2023/08/06 11:20:09;;;;;;;0.63;0.50;;;20.90;99.90;;;;;;5092643;28;20283;-72
2023/08/06 11:22:36;;;;;;;0.20;0.20;;;21.10;99.90;;;;;;5074269;28;20577;-72
2023/08/06 11:25:02;;;;;;;0.88;0.32;;;21.20;99.90;;;;;;5074433;28;20249;-72
2023/08/06 11:27:29;;;;;;;0.20;0.20;;;20.90;99.90;;;;;;5092219;28;20666;-72
2023/08/06 11:29:54;;;;;;;0.40;0.40;;;20.90;99.90;;;;;;5074126;28;20192;-72
2023/08/06 11:32:20;;;;;;;0.20;0.20;;;20.80;99.90;;;;;;5092068;28;20196;-73
2023/08/06 11:34:46;;;;;;;0.30;0.30;;;20.80;99.90;;;;;;5092228;28;20207;-75
2023/08/06 11:37:11;;;;;;;0.43;0.43;;;20.80;99.90;;;;;;5092196;28;20203;-73
2023/08/06 11:39:38;;;;;;;0.30;0.30;;;20.80;99.90;;;;;;5091859;28;20614;-73
2023/08/06 11:42:06;;;;;;;0.38;0.38;;;20.90;99.90;;;;;;5091976;28;20684;-73
2023/08/06 11:44:35;;;;;;;0.32;0.32;;;20.80;99.90;;;;;;5092094;28;20196;-73
2023/08/06 11:47:04;;;;;;;0.28;0.28;;;20.80;99.90;;;;;;5092276;28;20291;-74
2023/08/06 11:49:47;;;;;;;0.70;0.60;;;20.50;99.90;;;;;;5092390;28;20188;-74
2023/08/06 11:52:24;;;;;;;0.40;0.40;;;20.50;99.90;;;;;;5090456;28;20195;-74
2023/08/06 11:55:10;;;;;;;6.75;0.35;;;20.70;99.90;;;;;;5092126;28;20282;-73
2023/08/06 11:57:42;;;;;;;0.22;0.22;;;20.90;99.90;;;;;;5091543;28;20199;-73
2023/08/06 12:00:09;;;;;;;0.50;0.50;;;21.00;99.90;;;;;;5093744;28;20296;-74
2023/08/06 12:02:37;;;;;;;0.25;0.25;;;20.80;99.90;;;;;;5102778;28;20212;-74
2023/08/06 12:05:17;;;;;;;0.57;0.57;;;20.80;99.90;;;;;;5095936;28;20651;-74
2023/08/06 12:07:55;;;;;;;0.95;0.47;;;20.60;99.90;;;;;;5095891;28;20188;-74
2023/08/06 12:10:24;;;;;;;0.32;0.32;;;20.50;99.90;;;;;;5094462;28;20191;-73
2023/08/06 12:12:50;;;;;;;1.65;1.00;;;20.10;99.90;;;;;;5078174;28;20196;-74
2023/08/06 12:15:15;;;;;;;0.38;0.38;;;19.80;99.90;;;;;;5095910;28;20191;-70
2023/08/06 12:17:42;;;;;;;0.55;0.40;;;19.50;99.90;;;;;;5095321;28;20190;-71
2023/08/06 12:20:09;;;;;;;0.20;0.20;;;19.30;99.90;;;;;;5077505;28;20196;-69
2023/08/06 12:22:35;;;;;;;0.30;0.30;;;19.10;99.90;;;;;;5095267;28;20231;-70
2023/08/06 12:25:12;;;;;;;0.30;0.30;;;19.00;99.90;;;;;;5095634;28;20194;-69
2023/08/06 12:27:39;;;;;;;0.30;0.30;;;19.10;99.90;;;;;;5095617;28;20550;-70
2023/08/06 12:30:06;;;;;;;0.25;0.25;;;19.30;99.90;;;;;;5095395;28;20600;-69
2023/08/06 12:32:33;;;;;;;0.40;0.40;;;19.50;99.90;;;;;;5095387;28;20630;-70
2023/08/06 12:34:58;;;;;;;0.40;0.40;;;19.30;99.90;;;;;;5095022;28;20275;-70
2023/08/06 12:37:25;;;;;;;0.57;0.57;;;19.10;99.90;;;;;;5095390;28;20226;-69
2023/08/06 12:39:51;;;;;;;0.38;0.35;;;19.10;99.90;;;;;;5095260;28;20240;-69
2023/08/06 12:42:16;;;;;;;0.47;0.47;;;19.10;99.90;;;;;;5095131;28;20208;-70
2023/08/06 12:44:42;;;;;;;0.35;0.30;;;19.10;99.90;;;;;;5095302;28;20191;-70
2023/08/06 12:47:08;;;;;;;0.98;0.80;;;19.30;99.90;;;;;;5095461;28;20200;-72
2023/08/06 12:49:34;;;;;;;0.38;0.28;;;19.30;99.90;;;;;;5095917;28;20283;-71
2023/08/06 12:52:00;;;;;;;1.98;0.80;;;19.40;99.90;;;;;;5095380;28;20282;-72